createdAt,value
2022-09-07T00:02:45.021Z,69.21
2022-09-07T00:05:50.223Z,69.25
2022-09-07T00:08:53.238Z,69.38
2022-09-07T00:11:56.039Z,69.34
2022-09-07T00:15:00.267Z,70.04
2022-09-07T00:18:03.326Z,70.68
2022-09-07T00:21:08.344Z,70.78
2022-09-07T00:24:11.049Z,70.33
2022-09-07T00:27:13.786Z,70.04
2022-09-07T00:30:18.087Z,70.03
2022-09-07T00:33:21.201Z,69.97
2022-09-07T00:36:24.742Z,69.62
2022-09-07T00:39:27.564Z,69.59
2022-09-07T00:42:30.510Z,69.65
2022-09-07T00:45:34.571Z,69.58
2022-09-07T00:48:44.926Z,69.46
2022-09-07T00:51:53.315Z,69.17
2022-09-07T00:55:00.241Z,69.71
2022-09-07T00:58:04.250Z,69.54
2022-09-07T01:01:09.862Z,69.61
2022-09-07T01:04:12.845Z,69.67
2022-09-07T01:07:16.009Z,69.92
2022-09-07T01:10:19.132Z,70.02
2022-09-07T01:13:21.913Z,69.79
2022-09-07T01:16:37.188Z,69.65
2022-09-07T01:20:18.148Z,69.74
2022-09-07T01:24:02.564Z,69.80
2022-09-07T01:27:33.064Z,69.93
2022-09-07T01:30:39.732Z,70.25
2022-09-07T01:33:52.837Z,70.13
2022-09-07T01:37:01.753Z,70.54
2022-09-07T01:40:11.725Z,70.52
2022-09-07T01:43:21.609Z,70.78
2022-09-07T01:46:29.178Z,70.64
2022-09-07T01:49:37.954Z,70.54
2022-09-07T01:52:45.410Z,70.67
2022-09-07T01:55:53.375Z,70.73
2022-09-07T01:58:59.748Z,71.00
2022-09-07T02:02:08.486Z,70.66
2022-09-07T02:05:15.768Z,70.62
2022-09-07T02:08:24.965Z,70.68
2022-09-07T02:11:36.778Z,70.66
2022-09-07T02:14:42.765Z,70.99
2022-09-07T02:17:51.375Z,71.07
2022-09-07T02:20:58.116Z,70.99
2022-09-07T02:24:07.291Z,71.21
2022-09-07T02:27:13.231Z,71.16
2022-09-07T02:30:16.839Z,71.19
2022-09-07T02:33:21.049Z,70.86
2022-09-07T02:36:27.967Z,71.05
2022-09-07T02:39:30.787Z,70.93
2022-09-07T02:42:35.490Z,71.20
2022-09-07T02:45:52.461Z,70.93
2022-09-07T02:49:09.835Z,70.88
2022-09-07T02:52:21.524Z,71.01
2022-09-07T02:55:33.992Z,71.50
2022-09-07T02:58:47.272Z,71.99
2022-09-07T03:01:58.433Z,72.19
2022-09-07T03:05:11.060Z,72.45
2022-09-07T03:08:19.513Z,73.26
2022-09-07T03:11:23.577Z,73.84
2022-09-07T03:14:30.242Z,77.79
2022-09-07T03:17:33.077Z,84.59
2022-09-07T03:20:37.461Z,91.80
2022-09-07T03:23:40.151Z,92.00
2022-09-07T03:26:45.791Z,90.72
2022-09-07T03:29:48.485Z,90.11
2022-09-07T03:32:51.321Z,90.39
2022-09-07T03:36:03.291Z,90.77
2022-09-07T03:39:07.359Z,90.31
2022-09-07T03:42:10.128Z,89.93
2022-09-07T03:45:12.864Z,89.78
2022-09-07T03:48:15.719Z,89.71
2022-09-07T03:51:20.171Z,89.68
2022-09-07T03:54:23.226Z,89.04
2022-09-07T03:57:26.111Z,89.22
2022-09-07T04:00:28.857Z,89.92
2022-09-07T04:03:31.616Z,90.74
2022-09-07T04:06:36.627Z,90.88
2022-09-07T04:09:39.468Z,90.94
2022-09-07T04:12:42.189Z,90.61
2022-09-07T04:15:44.917Z,90.77
2022-09-07T04:18:49.670Z,90.84
2022-09-07T04:21:54.760Z,91.16
2022-09-07T04:24:57.481Z,91.45
2022-09-07T04:28:00.332Z,92.04
2022-09-07T04:31:03.578Z,91.87
2022-09-07T04:34:07.183Z,92.01
2022-09-07T04:37:12.572Z,91.84
2022-09-07T04:40:15.555Z,91.65
2022-09-07T04:43:18.305Z,91.93
2022-09-07T04:46:24.336Z,92.26
2022-09-07T04:49:27.771Z,92.42
2022-09-07T04:52:31.846Z,92.30
2022-09-07T04:55:34.593Z,92.14
2022-09-07T04:58:37.309Z,92.48
2022-09-07T05:01:40.082Z,92.66
2022-09-07T05:04:42.887Z,93.09
2022-09-07T05:07:46.920Z,92.89
2022-09-07T05:10:52.607Z,93.10
2022-09-07T05:13:56.745Z,93.03
2022-09-07T05:16:59.501Z,93.11
2022-09-07T05:20:02.555Z,92.98
2022-09-07T05:23:06.921Z,93.07
2022-09-07T05:26:10.813Z,93.16
2022-09-07T05:32:36.562Z,94.86
2022-09-07T05:35:39.272Z,95.02
2022-09-07T05:38:43.650Z,94.72
2022-09-07T05:41:46.331Z,94.10
2022-09-07T05:44:49.078Z,93.95
2022-09-07T05:47:52.141Z,95.29
2022-09-07T05:50:54.849Z,96.04
2022-09-07T05:53:59.770Z,96.43
2022-09-07T05:57:03.913Z,96.96
2022-09-07T06:00:07.383Z,97.33
2022-09-07T06:03:10.257Z,96.91
2022-09-07T06:06:14.852Z,96.94
2022-09-07T06:09:18.889Z,96.83
2022-09-07T06:12:22.063Z,96.46
2022-09-07T06:15:24.809Z,96.39
2022-09-07T06:18:31.447Z,96.19
2022-09-07T06:21:36.834Z,95.49
2022-09-07T06:24:40.920Z,95.17
2022-09-07T06:27:43.691Z,95.08
2022-09-07T06:30:46.593Z,95.39
2022-09-07T06:33:50.306Z,93.57
2022-09-07T06:36:53.042Z,90.77
2022-09-07T06:39:57.404Z,89.31
2022-09-07T06:43:00.242Z,87.83
2022-09-07T06:55:03.417Z,85.36
2022-09-07T06:58:06.465Z,84.90
2022-09-07T07:01:12.080Z,84.60
2022-09-07T07:04:15.175Z,86.78
2022-09-07T07:07:17.927Z,89.07
2022-09-07T07:10:24.803Z,90.29
2022-09-07T07:13:28.073Z,90.04
2022-09-07T07:16:31.133Z,90.90
2022-09-07T07:19:34.012Z,91.69
2022-09-07T07:22:46.402Z,92.06
2022-09-07T07:25:50.929Z,91.87
2022-09-07T07:29:03.721Z,92.46
2022-09-07T07:32:07.348Z,92.15
2022-09-07T07:35:11.149Z,92.12
2022-09-07T07:41:56.456Z,91.07
2022-09-07T07:52:49.456Z,89.61
2022-09-07T07:54:54.795Z,89.50
2022-09-07T07:57:58.814Z,89.47
2022-09-07T08:01:03.360Z,88.57
2022-09-07T08:04:06.222Z,87.68
2022-09-07T08:07:12.148Z,86.71
2022-09-07T08:10:15.054Z,86.97
2022-09-07T08:13:19.524Z,86.68
2022-09-07T08:16:23.073Z,86.56
2022-09-07T08:19:25.798Z,85.21
2022-09-07T08:22:31.767Z,85.65
2022-09-07T08:25:37.770Z,85.22
2022-09-07T08:28:43.948Z,84.90
2022-09-07T08:31:46.705Z,83.69
2022-09-07T08:34:49.652Z,82.85
2022-09-07T08:37:52.349Z,82.08
2022-09-07T08:40:55.536Z,81.20
2022-09-07T08:44:02.876Z,80.60
2022-09-07T08:47:12.759Z,80.15
2022-09-07T08:50:21.311Z,79.51
2022-09-07T08:53:25.651Z,79.13
2022-09-07T08:56:33.944Z,77.93
2022-09-07T08:59:43.856Z,77.53
2022-09-07T09:03:28.667Z,76.10
2022-09-07T09:06:18.665Z,76.28
2022-09-07T09:09:33.075Z,75.54
2022-09-07T09:12:55.149Z,74.84
2022-09-07T09:16:05.891Z,74.99
2022-09-07T09:19:31.325Z,74.22
2022-09-07T09:22:34.076Z,73.63
2022-09-07T09:25:39.648Z,72.73
2022-09-07T09:28:42.437Z,71.73
2022-09-07T09:31:46.932Z,70.64
2022-09-07T09:35:01.975Z,69.49
2022-09-07T09:38:05.037Z,67.42
2022-09-07T09:41:09.550Z,66.81
2022-09-07T09:44:17.092Z,65.65
2022-09-07T09:47:32.726Z,63.44
2022-09-07T09:54:07.192Z,61.89
2022-09-07T09:57:16.256Z,62.20
2022-09-07T10:00:27.901Z,60.69
2022-09-07T10:07:04.813Z,57.03
2022-09-07T10:10:16.458Z,57.46
2022-09-07T10:13:22.438Z,56.49
2022-09-07T10:16:39.660Z,57.06
2022-09-07T10:19:45.277Z,56.05
2022-09-07T10:22:59.485Z,55.81
2022-09-07T10:26:22.123Z,54.17
2022-09-07T10:29:32.397Z,55.70
2022-09-07T10:32:47.777Z,56.00
2022-09-07T10:35:59.941Z,56.47
2022-09-07T10:39:07.617Z,56.48
2022-09-07T10:42:24.911Z,55.79
2022-09-07T10:45:38.201Z,55.59
2022-09-07T10:48:51.384Z,55.33
2022-09-07T10:52:10.579Z,54.40
2022-09-07T10:55:18.644Z,54.03
2022-09-07T10:59:01.409Z,53.72
2022-09-07T11:02:01.880Z,52.84
2022-09-07T11:05:12.452Z,53.69
2022-09-07T11:09:15.191Z,53.99
2022-09-07T11:15:27.105Z,52.69
2022-09-07T11:18:34.267Z,52.60
2022-09-07T11:21:57.307Z,51.44
2022-09-07T11:28:36.706Z,49.41
2022-09-07T11:31:44.391Z,47.31
2022-09-07T11:34:52.495Z,49.17
2022-09-07T11:37:59.590Z,49.03
2022-09-07T11:41:19.561Z,48.15
2022-09-07T11:44:28.467Z,47.49
2022-09-07T11:47:37.107Z,47.44
2022-09-07T11:50:47.272Z,48.30
2022-09-07T11:53:54.754Z,48.51
2022-09-07T11:57:09.457Z,47.94
2022-09-07T12:00:18.829Z,46.98
2022-09-07T12:03:44.056Z,47.64
2022-09-07T12:07:19.834Z,47.58
2022-09-07T12:10:37.774Z,47.13
2022-09-07T12:14:13.251Z,45.52
2022-09-07T12:17:27.782Z,44.30
2022-09-07T12:20:41.456Z,44.22
2022-09-07T12:23:48.465Z,44.01
2022-09-07T12:26:52.364Z,43.26
2022-09-07T12:30:29.145Z,41.37
2022-09-07T12:33:36.729Z,40.26
2022-09-07T12:36:50.456Z,39.89
2022-09-07T12:40:32.361Z,39.00
2022-09-07T12:44:10.350Z,38.80
2022-09-07T12:47:29.337Z,38.65
2022-09-07T12:50:39.460Z,38.04
2022-09-07T12:53:54.209Z,37.66
2022-09-07T13:00:37.382Z,37.62
2022-09-07T13:03:53.554Z,37.46
2022-09-07T13:07:19.385Z,36.24
2022-09-07T13:10:30.499Z,35.22
2022-09-07T13:17:29.729Z,34.39
2022-09-07T13:20:37.602Z,35.07
2022-09-07T13:23:45.758Z,35.68
2022-09-07T13:26:54.203Z,36.55
2022-09-07T13:30:00.506Z,36.95
2022-09-07T13:33:49.104Z,37.76
2022-09-07T13:36:51.959Z,38.17
2022-09-07T13:39:58.432Z,38.55
2022-09-07T13:43:04.086Z,39.07
2022-09-07T13:46:18.044Z,39.33
2022-09-07T13:49:37.331Z,39.61
2022-09-07T13:52:56.373Z,40.08
2022-09-07T13:56:12.371Z,39.92
2022-09-07T13:59:20.464Z,40.49
2022-09-07T14:02:27.143Z,40.67
2022-09-07T14:05:30.122Z,39.86
2022-09-07T14:08:36.728Z,38.40
2022-09-07T14:11:45.327Z,39.02
2022-09-07T14:14:48.624Z,38.51
2022-09-07T14:18:01.606Z,39.04
2022-09-07T14:21:05.853Z,39.80
2022-09-07T14:24:28.983Z,39.75
2022-09-07T14:27:35.415Z,40.06
2022-09-07T14:30:38.909Z,40.80
2022-09-07T14:33:47.280Z,40.80
2022-09-07T14:36:51.753Z,41.17
2022-09-07T14:39:55.956Z,41.00
2022-09-07T14:43:00.063Z,41.27
2022-09-07T14:46:16.681Z,41.29
2022-09-07T14:49:21.605Z,40.86
2022-09-07T14:52:33.387Z,40.82
2022-09-07T14:55:40.507Z,40.73
2022-09-07T14:58:44.661Z,40.58
2022-09-07T15:01:47.349Z,40.91
2022-09-07T15:05:10.933Z,40.78
2022-09-07T15:08:38.722Z,40.93
2022-09-07T15:11:41.483Z,40.58
2022-09-07T15:14:45.997Z,40.81
2022-09-07T15:17:49.536Z,41.27
2022-09-07T15:20:52.992Z,41.37
2022-09-07T15:23:58.560Z,41.41
2022-09-07T15:27:03.159Z,41.19
2022-09-07T15:30:10.759Z,41.41
2022-09-07T15:33:13.848Z,40.90
2022-09-07T15:36:17.886Z,41.24
2022-09-07T15:39:22.425Z,41.30
2022-09-07T15:45:51.288Z,41.51
2022-09-07T15:48:55.861Z,41.42
2022-09-07T15:52:06.414Z,40.64
2022-09-07T15:55:09.876Z,40.77
2022-09-07T15:58:13.531Z,40.82
2022-09-07T16:04:41.012Z,40.10
2022-09-07T16:11:18.712Z,40.00
2022-09-07T16:14:21.602Z,39.73
2022-09-07T16:17:27.437Z,39.14
2022-09-07T16:20:37.840Z,39.26
2022-09-07T16:23:43.276Z,39.04
2022-09-07T16:26:45.955Z,39.32
2022-09-07T16:29:49.105Z,39.33
2022-09-07T16:32:53.461Z,38.94
2022-09-07T16:36:01.002Z,39.14
2022-09-07T16:39:04.115Z,39.31
2022-09-07T16:42:08.871Z,39.62
2022-09-07T16:48:37.325Z,40.23
2022-09-07T16:51:40.911Z,40.38
2022-09-07T16:54:43.810Z,40.40
2022-09-07T17:01:11.459Z,40.54
2022-09-07T17:04:15.660Z,40.88
2022-09-07T17:07:18.612Z,41.10
2022-09-07T17:10:21.450Z,41.15
2022-09-07T17:13:25.487Z,41.37
2022-09-07T17:16:31.241Z,42.12
2022-09-07T17:19:36.247Z,42.90
2022-09-07T17:22:39.060Z,43.60
2022-09-07T17:25:41.758Z,43.38
2022-09-07T17:28:46.158Z,43.92
2022-09-07T17:35:12.953Z,43.99
2022-09-07T17:41:38.875Z,43.73
2022-09-07T17:44:41.837Z,43.47
2022-09-07T17:47:44.996Z,43.67
2022-09-07T17:50:49.371Z,43.99
2022-09-07T17:53:58.784Z,44.00
2022-09-07T17:57:02.044Z,44.14
2022-09-07T18:00:11.226Z,44.70
2022-09-07T18:03:14.755Z,45.22
2022-09-07T18:06:20.032Z,46.06
2022-09-07T18:09:22.932Z,46.77
2022-09-07T18:12:25.745Z,47.48
2022-09-07T18:15:28.901Z,48.63
2022-09-07T18:18:31.804Z,49.43
2022-09-07T18:21:37.961Z,50.62
2022-09-07T18:24:40.742Z,51.37
2022-09-07T18:27:44.248Z,51.90
2022-09-07T18:30:47.273Z,52.78
2022-09-07T18:33:50.009Z,53.19
2022-09-07T18:36:55.213Z,53.46
2022-09-07T18:39:58.108Z,53.59
2022-09-07T18:43:04.251Z,53.71
2022-09-07T18:46:09.970Z,54.10
2022-09-07T18:49:12.711Z,54.12
2022-09-07T18:55:41.344Z,55.02
2022-09-07T18:58:45.583Z,55.50
2022-09-07T19:01:48.645Z,55.60
2022-09-07T19:08:16.053Z,55.89
2022-09-07T19:11:21.027Z,56.28
2022-09-07T19:14:23.796Z,56.13
2022-09-07T19:17:26.497Z,56.29
2022-09-07T19:20:29.612Z,56.72
2022-09-07T19:23:34.176Z,56.96
2022-09-07T19:26:38.862Z,57.26
2022-09-07T19:29:41.734Z,57.50
2022-09-07T19:32:44.742Z,57.47
2022-09-07T19:35:47.751Z,57.73
2022-09-07T19:38:51.934Z,57.74
2022-09-07T19:41:54.781Z,57.89
2022-09-07T19:44:57.574Z,57.81
2022-09-07T19:48:00.275Z,57.79
2022-09-07T19:51:03.031Z,57.76
2022-09-07T19:54:08.296Z,57.94
2022-09-07T19:57:11.091Z,58.50
2022-09-07T20:00:14.863Z,59.67
2022-09-07T20:03:17.576Z,60.38
2022-09-07T20:06:20.332Z,61.10
2022-09-07T20:09:24.851Z,61.32
2022-09-07T20:12:27.795Z,61.59
2022-09-07T20:15:31.309Z,61.69
2022-09-07T20:18:36.439Z,62.59
2022-09-07T20:21:39.169Z,65.40
2022-09-07T20:24:43.745Z,67.48
2022-09-07T20:27:46.717Z,67.27
2022-09-07T20:30:49.423Z,67.95
2022-09-07T20:33:52.750Z,68.06
2022-09-07T20:36:56.879Z,68.20
2022-09-07T20:40:01.152Z,69.38
2022-09-07T20:43:05.034Z,70.00
2022-09-07T20:46:09.869Z,69.88
2022-09-07T20:49:12.719Z,70.29
2022-09-07T20:52:15.465Z,70.35
2022-09-07T20:55:19.616Z,70.47
2022-09-07T20:58:22.310Z,70.55
2022-09-07T21:01:25.515Z,71.25
2022-09-07T21:04:28.385Z,71.42
2022-09-07T21:07:31.080Z,71.72
2022-09-07T21:10:39.376Z,72.25
2022-09-07T21:13:42.573Z,72.38
2022-09-07T21:16:45.237Z,72.99
2022-09-07T21:19:47.978Z,73.45
2022-09-07T21:22:50.754Z,73.56
2022-09-07T21:25:54.905Z,73.88
2022-09-07T21:28:58.755Z,74.10
2022-09-07T21:32:03.039Z,74.18
2022-09-07T21:35:07.012Z,74.63
2022-09-07T21:38:09.775Z,74.72
2022-09-07T21:41:16.781Z,75.02
2022-09-07T21:44:20.409Z,75.11
2022-09-07T21:47:23.282Z,75.21
2022-09-07T21:50:26.393Z,74.90
2022-09-07T21:53:29.429Z,74.89
2022-09-07T21:56:33.922Z,74.65
2022-09-07T21:59:36.622Z,74.98
2022-09-07T22:02:39.553Z,74.87
2022-09-07T22:05:42.583Z,74.96
2022-09-07T22:08:45.850Z,74.67
2022-09-07T22:11:50.438Z,74.73
2022-09-07T22:14:53.178Z,74.46
2022-09-07T22:17:56.653Z,74.80
2022-09-07T22:21:04.299Z,74.88
2022-09-07T22:24:07.767Z,75.28
2022-09-07T22:27:11.855Z,75.29
2022-09-07T22:30:15.584Z,75.26
2022-09-07T22:33:18.649Z,75.42
2022-09-07T22:36:23.353Z,75.49
2022-09-07T22:39:26.346Z,75.80
2022-09-07T22:42:30.358Z,75.87
2022-09-07T22:45:33.443Z,75.96
2022-09-07T22:48:37.024Z,76.12
2022-09-07T22:51:40.139Z,76.22
2022-09-07T22:54:42.964Z,76.26
2022-09-07T22:57:49.693Z,76.35
2022-09-07T23:00:52.891Z,76.52
2022-09-07T23:03:56.356Z,76.78
2022-09-07T23:06:59.376Z,76.74
2022-09-07T23:10:02.085Z,76.85
2022-09-07T23:16:09.508Z,77.10
2022-09-07T23:19:13.659Z,77.08
2022-09-07T23:22:16.283Z,77.19
2022-09-07T23:25:18.986Z,77.40
2022-09-07T23:28:23.411Z,77.58
2022-09-07T23:31:27.499Z,77.74
2022-09-07T23:34:30.296Z,77.64
2022-09-07T23:37:33.373Z,77.64
2022-09-07T23:40:36.792Z,77.51
2022-09-07T23:43:41.276Z,77.72
2022-09-07T23:46:44.435Z,77.93
2022-09-07T23:49:47.595Z,77.90
2022-09-07T23:52:50.297Z,77.93
2022-09-07T23:55:53.555Z,78.18
2022-09-07T23:58:58.074Z,78.47
